KESWICK RESERVOIR (KES)

Elevation: 596' · SACRAMENTO R basin · Operator: US Bureau of Reclamation

Provisional data, subject to change.
Query executed Tuesday at 14:44:39   clock

Select a sensor type for a plot of data.
Note: Reservoir Flows are daily averages.

Earlier

Date RES ELE    STORAGE    RES CHG    OUTFLOW    INFLOW   
 FEET   AF   AF   CFS   CFS  
08/31/2014 582.23 20823 149 6903 6984
09/01/2014 581.49 20387 -436 6900 6685
09/02/2014 583.28 21453 1066 6900 7442
09/03/2014 583.25 21435 -18 6588 6585
09/04/2014 582.61 21050 -385 6600 6412
09/05/2014 582.67 21086 36 6393 6417
09/06/2014 583.48 21574 488 6150 6402
09/07/2014 583.28 21453 -121 6139 6084
09/08/2014 582.82 21176 -277 6148 6014
09/09/2014 582.33 20883 -293 5894 5752
09/10/2014 583.73 21726 843 5901 6331
09/11/2014 584.08 21939 213 5623 5735
09/12/2014 585.00 22507 568 5636 5927
09/13/2014 585.66 22921 414 5690 5905
09/14/2014 583.94 21854 -1067 5562 5029
09/15/2014 584.14 21976 122 5492 5560
09/16/2014 583.39 21520 -456 5499 5275
09/17/2014 583.77 21750 230 5494 5614
09/18/2014 584.59 22254 504 5553 5812
09/19/2014 584.50 22199 -55 5379 5353
09/20/2014 584.82 22396 197 5319 5423
09/21/2014 584.08 21939 -457 5326 5102
09/22/2014 584.92 22458 519 5108 5375
09/23/2014 584.65 22291 -167 5115 5034
09/24/2014 584.40 22137 -154 4812 4738
09/25/2014 584.05 21921 -216 4803 4701
09/26/2014 582.89 21217 -704 4541 4187
09/27/2014 580.42 19766 -1451 4535 3806
09/28/2014 580.71 19933 167 4530 4617
09/29/2014 580.42 19766 -167 4537 4455
09/30/2014 -- -- -- -- --

Later | Latest

Warning! This data is preliminary and subject to revision.

Download Data Now Download Data Now | Show KES Map | Plot KES Data | 1 Month KES Data | Real-Time KES Data | KES Info